createdAt,value
2023-10-29T00:00:10.137Z,12.47
2023-10-29T00:02:38.545Z,13.07
2023-10-29T00:05:07.314Z,13.10
2023-10-29T00:07:35.342Z,12.77
2023-10-29T00:10:05.416Z,12.07
2023-10-29T00:12:33.517Z,11.97
2023-10-29T00:15:01.699Z,11.77
2023-10-29T00:17:29.751Z,12.90
2023-10-29T00:20:00.750Z,13.00
2023-10-29T00:22:29.221Z,12.50
2023-10-29T00:24:57.294Z,12.00
2023-10-29T00:27:26.736Z,12.73
2023-10-29T00:29:54.850Z,13.67
2023-10-29T00:32:22.960Z,12.50
2023-10-29T00:34:51.112Z,12.67
2023-10-29T00:37:19.472Z,12.43
2023-10-29T00:39:47.555Z,12.97
2023-10-29T00:42:15.581Z,13.07
2023-10-29T00:44:45.220Z,13.00
2023-10-29T00:47:13.958Z,13.27
2023-10-29T00:49:42.281Z,12.63
2023-10-29T00:52:10.812Z,12.73
2023-10-29T00:54:39.018Z,12.07
2023-10-29T00:57:07.583Z,11.93
2023-10-29T00:59:37.048Z,11.77
2023-10-29T01:02:07.119Z,12.70
2023-10-29T01:04:37.254Z,12.40
2023-10-29T01:07:05.703Z,11.60
2023-10-29T01:09:34.833Z,12.13
2023-10-29T01:12:03.343Z,12.57
2023-10-29T01:14:32.075Z,12.20
2023-10-29T01:17:00.245Z,12.40
2023-10-29T01:19:29.725Z,11.60
2023-10-29T01:21:58.125Z,12.43
2023-10-29T01:24:26.884Z,12.63
2023-10-29T01:26:55.328Z,13.87
2023-10-29T01:29:23.420Z,12.47
2023-10-29T01:31:51.756Z,11.73
2023-10-29T01:34:19.725Z,12.37
2023-10-29T01:36:49.156Z,11.83
2023-10-29T01:39:17.285Z,12.80
2023-10-29T01:41:45.705Z,12.17
2023-10-29T01:44:13.884Z,12.10
2023-10-29T01:46:41.915Z,12.33
2023-10-29T01:49:10.783Z,13.10
2023-10-29T01:51:38.874Z,12.30
2023-10-29T01:54:08.463Z,12.63
2023-10-29T01:56:36.627Z,12.57
2023-10-29T01:59:04.859Z,12.50
2023-10-29T02:01:33.046Z,12.03
2023-10-29T02:04:01.271Z,12.60
2023-10-29T02:06:29.401Z,12.83
2023-10-29T02:08:58.036Z,13.43
2023-10-29T02:11:27.619Z,13.33
2023-10-29T02:13:56.207Z,13.20
2023-10-29T02:16:24.440Z,12.60
2023-10-29T02:18:52.508Z,12.57
2023-10-29T02:21:21.626Z,12.03
2023-10-29T02:23:51.059Z,13.63
2023-10-29T02:26:19.573Z,13.13
2023-10-29T02:28:47.587Z,13.83
2023-10-29T02:31:19.201Z,14.10
2023-10-29T02:33:48.928Z,12.60
2023-10-29T02:36:17.054Z,13.87
2023-10-29T02:38:45.099Z,13.53
2023-10-29T02:41:14.692Z,13.03
2023-10-29T02:43:42.880Z,14.50
2023-10-29T02:46:11.967Z,14.10
2023-10-29T02:48:40.503Z,13.13
2023-10-29T02:51:12.732Z,13.63
2023-10-29T02:53:41.161Z,13.87
2023-10-29T02:56:09.324Z,14.23
2023-10-29T02:58:38.691Z,14.13
2023-10-29T03:01:08.570Z,14.47
2023-10-29T03:03:37.080Z,14.80
2023-10-29T03:06:06.583Z,14.83
2023-10-29T03:08:34.862Z,15.23
2023-10-29T03:11:02.621Z,15.20
2023-10-29T03:13:31.317Z,15.70
2023-10-29T03:16:00.940Z,14.70
2023-10-29T03:18:30.731Z,16.00
2023-10-29T03:20:58.838Z,15.33
2023-10-29T03:23:26.917Z,14.93
2023-10-29T03:25:55.117Z,16.30
2023-10-29T03:28:23.125Z,16.10
2023-10-29T03:30:51.203Z,15.93
2023-10-29T03:33:20.590Z,15.20
2023-10-29T03:35:48.680Z,16.67
2023-10-29T03:38:16.721Z,15.97
2023-10-29T03:40:44.835Z,15.57
2023-10-29T03:43:12.937Z,16.50
2023-10-29T03:45:41.141Z,15.33
2023-10-29T03:48:09.236Z,17.10
2023-10-29T03:50:38.650Z,15.83
2023-10-29T03:53:06.674Z,15.73
2023-10-29T03:55:34.818Z,16.47
2023-10-29T03:58:02.891Z,15.53
2023-10-29T04:00:31.041Z,17.70
2023-10-29T04:02:59.109Z,16.60
2023-10-29T04:05:27.591Z,16.27
2023-10-29T04:07:57.065Z,16.03
2023-10-29T04:10:25.077Z,16.47
2023-10-29T04:12:53.092Z,16.23
2023-10-29T04:15:21.108Z,16.93
2023-10-29T04:17:50.890Z,16.50
2023-10-29T04:20:19.058Z,17.00
2023-10-29T04:22:47.104Z,17.60
2023-10-29T04:25:16.742Z,16.10
2023-10-29T04:27:44.763Z,16.47
2023-10-29T04:30:13.455Z,17.10
2023-10-29T04:32:41.665Z,16.40
2023-10-29T04:35:10.338Z,17.00
2023-10-29T04:37:38.551Z,16.87
2023-10-29T04:40:08.024Z,16.73
2023-10-29T04:42:37.499Z,16.50
2023-10-29T04:45:06.581Z,16.97
2023-10-29T04:47:34.631Z,16.03
2023-10-29T04:50:02.929Z,16.43
2023-10-29T04:52:31.029Z,16.60
2023-10-29T04:54:59.428Z,17.17
2023-10-29T04:57:27.485Z,16.40
2023-10-29T04:59:56.976Z,16.90
2023-10-29T05:02:25.231Z,17.43
2023-10-29T05:04:53.310Z,17.03
2023-10-29T05:07:21.535Z,17.47
2023-10-29T05:09:49.842Z,16.63
2023-10-29T05:12:18.030Z,17.47
2023-10-29T05:14:46.139Z,17.40
2023-10-29T05:17:15.574Z,18.03
2023-10-29T05:19:44.594Z,17.40
2023-10-29T05:22:12.884Z,17.40
2023-10-29T05:24:40.906Z,17.67
2023-10-29T05:27:09.031Z,17.13
2023-10-29T05:29:37.092Z,17.17
2023-10-29T05:32:05.905Z,17.63
2023-10-29T05:34:35.852Z,16.53
2023-10-29T05:37:05.232Z,16.83
2023-10-29T05:39:33.399Z,17.57
2023-10-29T05:42:01.530Z,17.17
2023-10-29T05:44:29.792Z,16.47
2023-10-29T05:46:57.879Z,17.17
2023-10-29T05:49:26.436Z,16.87
2023-10-29T05:51:55.920Z,17.47
2023-10-29T05:54:24.356Z,16.97
2023-10-29T05:56:52.476Z,18.03
2023-10-29T05:59:21.765Z,16.87
2023-10-29T06:01:49.922Z,17.50
2023-10-29T06:04:18.115Z,17.80
2023-10-29T06:06:46.175Z,16.53
2023-10-29T06:09:23.779Z,17.33
2023-10-29T06:11:54.127Z,17.63
2023-10-29T06:14:24.130Z,17.27
2023-10-29T06:17:03.500Z,19.07
2023-10-29T06:19:37.000Z,16.70
2023-10-29T06:22:06.769Z,17.60
2023-10-29T06:24:36.524Z,17.13
2023-10-29T06:27:05.337Z,17.77
2023-10-29T06:29:33.402Z,17.30
2023-10-29T06:32:01.457Z,17.87
2023-10-29T06:34:29.469Z,17.17
2023-10-29T06:36:57.682Z,17.47
2023-10-29T06:39:25.901Z,17.53
2023-10-29T06:41:55.394Z,16.33
2023-10-29T06:44:23.406Z,18.07
2023-10-29T06:46:52.489Z,17.70
2023-10-29T06:49:20.459Z,18.60
2023-10-29T06:51:49.731Z,18.53
2023-10-29T06:54:17.859Z,15.80
2023-10-29T06:56:45.888Z,18.20
2023-10-29T06:59:15.419Z,17.70
2023-10-29T07:01:43.942Z,17.87
2023-10-29T07:04:12.306Z,17.20
2023-10-29T07:06:43.360Z,17.00
2023-10-29T07:09:12.080Z,18.30
2023-10-29T07:11:40.664Z,18.73
2023-10-29T07:14:09.206Z,18.57
2023-10-29T07:16:38.970Z,18.60
2023-10-29T07:19:07.089Z,19.60
2023-10-29T07:21:36.014Z,18.23
2023-10-29T07:24:05.384Z,18.53
2023-10-29T07:26:34.371Z,18.17
2023-10-29T07:29:02.625Z,19.20
2023-10-29T07:31:31.550Z,19.50
2023-10-29T07:34:01.206Z,18.17
2023-10-29T07:36:30.409Z,18.40
2023-10-29T07:38:58.944Z,18.90
2023-10-29T07:41:27.012Z,18.80
2023-10-29T07:43:55.202Z,20.00
2023-10-29T07:46:23.203Z,18.93
2023-10-29T07:48:51.270Z,19.33
2023-10-29T07:51:20.694Z,19.70
2023-10-29T07:53:48.700Z,19.23
2023-10-29T07:56:16.925Z,21.20
2023-10-29T07:58:45.350Z,20.27
2023-10-29T08:01:14.390Z,20.33
2023-10-29T08:03:42.628Z,19.07
2023-10-29T08:06:11.062Z,19.93
2023-10-29T08:08:41.069Z,20.47
2023-10-29T08:11:18.484Z,18.13
2023-10-29T08:13:46.822Z,18.40
2023-10-29T08:16:15.692Z,17.33
2023-10-29T08:18:44.154Z,16.53
2023-10-29T08:21:12.542Z,17.10
2023-10-29T08:23:41.966Z,19.83
2023-10-29T08:26:10.287Z,19.80
2023-10-29T08:28:38.336Z,19.50
2023-10-29T08:31:06.419Z,29.07
2023-10-29T08:33:34.691Z,28.03
2023-10-29T08:36:02.797Z,22.47
2023-10-29T08:38:30.923Z,21.13
2023-10-29T08:41:00.428Z,19.63
2023-10-29T08:43:30.350Z,18.67
2023-10-29T08:45:59.887Z,18.77
2023-10-29T08:48:27.993Z,19.23
2023-10-29T08:50:56.435Z,18.13
2023-10-29T08:53:24.582Z,18.83
2023-10-29T08:55:52.896Z,19.37
2023-10-29T08:58:22.970Z,19.07
2023-10-29T09:00:52.485Z,18.97
2023-10-29T09:03:20.797Z,19.40
2023-10-29T09:05:49.334Z,19.57
2023-10-29T09:08:17.461Z,21.47
2023-10-29T09:10:46.750Z,20.00
2023-10-29T09:13:14.755Z,21.03
2023-10-29T09:15:44.485Z,21.97
2023-10-29T09:18:12.678Z,22.53
2023-10-29T09:20:41.096Z,22.43
2023-10-29T09:23:09.340Z,21.47
2023-10-29T09:25:37.424Z,21.33
2023-10-29T09:28:06.953Z,21.10
2023-10-29T09:30:35.001Z,20.20
2023-10-29T09:33:04.627Z,20.20
2023-10-29T09:35:33.400Z,21.07
2023-10-29T09:38:01.581Z,21.30
2023-10-29T09:40:29.632Z,20.13
2023-10-29T09:42:58.128Z,20.87
2023-10-29T09:45:28.274Z,21.73
2023-10-29T09:47:57.342Z,20.27
2023-10-29T09:50:27.434Z,20.77
2023-10-29T09:52:55.999Z,21.17
2023-10-29T09:55:24.831Z,21.90
2023-10-29T09:57:53.216Z,21.07
2023-10-29T10:00:21.401Z,20.00
2023-10-29T10:02:54.333Z,20.30
2023-10-29T10:05:24.002Z,21.33
2023-10-29T10:07:54.234Z,20.07
2023-10-29T10:10:23.013Z,19.87
2023-10-29T10:12:52.472Z,19.63
2023-10-29T10:15:22.030Z,19.43
2023-10-29T10:17:58.622Z,19.27
2023-10-29T10:20:27.340Z,19.60
2023-10-29T10:23:01.292Z,17.80
2023-10-29T10:25:30.533Z,19.80
2023-10-29T10:27:59.622Z,19.07
2023-10-29T10:30:29.435Z,20.07
2023-10-29T10:33:10.687Z,19.43
2023-10-29T10:35:46.702Z,18.93
2023-10-29T10:38:17.691Z,18.73
2023-10-29T10:40:45.927Z,20.07
2023-10-29T10:43:21.004Z,18.57
2023-10-29T10:45:52.256Z,17.10
2023-10-29T10:48:20.649Z,17.30
2023-10-29T10:50:49.288Z,16.63
2023-10-29T10:53:21.508Z,17.30
2023-10-29T10:56:03.206Z,16.10
2023-10-29T10:58:35.815Z,15.73
2023-10-29T11:01:07.508Z,15.70
2023-10-29T11:03:36.375Z,16.57
2023-10-29T11:06:05.221Z,14.67
2023-10-29T11:08:34.856Z,15.57
2023-10-29T11:11:03.246Z,15.20
2023-10-29T11:13:31.670Z,13.50
2023-10-29T11:15:59.904Z,14.63
2023-10-29T11:18:31.317Z,14.17
2023-10-29T11:21:01.788Z,13.47
2023-10-29T11:23:31.468Z,13.50
2023-10-29T11:26:28.612Z,12.80
2023-10-29T11:28:57.117Z,13.40
2023-10-29T11:31:27.390Z,13.07
2023-10-29T11:34:31.774Z,13.53
2023-10-29T11:36:59.950Z,12.83
2023-10-29T11:39:34.574Z,12.33
2023-10-29T11:42:28.337Z,12.87
2023-10-29T11:45:33.768Z,13.07
2023-10-29T11:48:18.499Z,12.53
2023-10-29T11:51:22.452Z,12.13
2023-10-29T11:53:50.648Z,12.37
2023-10-29T11:56:20.560Z,13.03
2023-10-29T11:59:06.096Z,13.50
2023-10-29T12:01:34.352Z,12.77
2023-10-29T12:04:02.483Z,12.93
2023-10-29T12:06:41.278Z,13.30
2023-10-29T12:09:22.982Z,12.73
2023-10-29T12:11:53.621Z,14.30
2023-10-29T12:14:43.532Z,13.30
2023-10-29T12:17:12.367Z,14.37
2023-10-29T12:19:42.888Z,13.30
2023-10-29T12:22:18.462Z,14.03
2023-10-29T12:24:48.184Z,12.57
2023-10-29T12:27:16.938Z,12.57
2023-10-29T12:29:46.460Z,13.83
2023-10-29T12:32:18.612Z,12.37
2023-10-29T12:34:50.864Z,12.53
2023-10-29T12:37:27.063Z,12.00
2023-10-29T12:39:57.814Z,10.23
2023-10-29T12:42:53.313Z,11.40
2023-10-29T12:45:29.764Z,10.87
2023-10-29T12:48:11.771Z,11.50
2023-10-29T12:50:47.709Z,13.60
2023-10-29T12:53:23.012Z,10.77
2023-10-29T12:55:51.743Z,10.87
2023-10-29T12:58:20.088Z,11.20
2023-10-29T13:00:49.832Z,11.33
2023-10-29T13:03:18.009Z,11.27
2023-10-29T13:05:46.059Z,10.90
2023-10-29T13:08:15.567Z,11.57
2023-10-29T13:10:47.175Z,11.87
2023-10-29T13:13:16.890Z,10.80
2023-10-29T13:15:45.041Z,18.83
2023-10-29T13:18:15.980Z,13.70
2023-10-29T13:20:44.138Z,12.93
2023-10-29T13:23:12.253Z,12.77
2023-10-29T13:25:40.543Z,12.13
2023-10-29T13:28:08.851Z,11.80
2023-10-29T13:30:37.158Z,11.90
2023-10-29T13:33:05.444Z,13.23
2023-10-29T13:35:39.540Z,11.33
2023-10-29T13:38:09.676Z,11.50
2023-10-29T13:40:39.309Z,11.30
2023-10-29T13:43:07.561Z,11.77
2023-10-29T13:45:35.677Z,11.83
2023-10-29T13:48:05.816Z,11.70
2023-10-29T13:50:38.686Z,11.70
2023-10-29T13:53:07.157Z,12.07
2023-10-29T13:55:35.482Z,11.20
2023-10-29T13:58:03.995Z,10.70
2023-10-29T14:00:32.483Z,11.53
2023-10-29T14:03:00.583Z,10.60
2023-10-29T14:05:29.035Z,11.13
2023-10-29T14:08:00.765Z,10.87
2023-10-29T14:10:29.034Z,10.87
2023-10-29T14:12:57.249Z,10.87
2023-10-29T14:15:25.384Z,11.43
2023-10-29T14:17:54.650Z,11.97
2023-10-29T14:20:23.319Z,13.50
2023-10-29T14:22:51.444Z,15.20
2023-10-29T14:25:21.136Z,15.90
2023-10-29T14:27:49.178Z,16.43
2023-10-29T14:30:17.447Z,11.80
2023-10-29T14:32:45.862Z,11.70
2023-10-29T14:35:14.045Z,11.80
2023-10-29T14:37:42.175Z,9.87
2023-10-29T14:40:10.947Z,8.77
2023-10-29T14:42:40.635Z,9.07
2023-10-29T14:45:10.677Z,8.23
2023-10-29T14:47:38.810Z,9.43
2023-10-29T14:50:10.017Z,9.97
2023-10-29T14:52:38.840Z,10.10
2023-10-29T14:55:08.292Z,12.80
2023-10-29T14:57:36.611Z,12.20
2023-10-29T15:00:08.753Z,12.03
2023-10-29T15:02:36.823Z,10.40
2023-10-29T15:05:06.141Z,13.67
2023-10-29T15:07:34.721Z,18.07
2023-10-29T15:10:02.947Z,27.97
2023-10-29T15:12:31.094Z,18.10
2023-10-29T15:15:00.328Z,22.13
2023-10-29T15:17:29.764Z,18.20
2023-10-29T15:19:59.012Z,14.63
2023-10-29T15:22:27.537Z,12.20
2023-10-29T15:24:55.594Z,11.50
2023-10-29T15:27:25.521Z,10.03
2023-10-29T15:29:53.692Z,9.97
2023-10-29T15:32:21.836Z,11.00
2023-10-29T15:34:51.291Z,7.63
2023-10-29T15:37:19.562Z,11.10
2023-10-29T15:39:47.635Z,6.47
2023-10-29T15:42:15.808Z,7.10
2023-10-29T15:44:43.904Z,8.70
2023-10-29T15:47:11.905Z,10.63
2023-10-29T15:49:40.096Z,10.60
2023-10-29T15:52:09.778Z,8.87
2023-10-29T15:54:37.811Z,11.17
2023-10-29T15:57:06.567Z,6.63
2023-10-29T15:59:34.791Z,6.60
2023-10-29T16:02:02.918Z,7.03
2023-10-29T16:04:31.084Z,7.37
2023-10-29T16:06:59.384Z,6.77
2023-10-29T16:09:29.243Z,6.70
2023-10-29T16:11:57.751Z,6.57
2023-10-29T16:14:25.813Z,13.00
2023-10-29T16:16:55.756Z,11.27
2023-10-29T16:19:23.890Z,9.23
2023-10-29T16:21:52.002Z,9.07
2023-10-29T16:24:20.193Z,20.27
2023-10-29T16:26:50.934Z,10.93
2023-10-29T16:29:19.268Z,10.87
2023-10-29T16:31:47.556Z,10.87
2023-10-29T16:34:15.742Z,12.57
2023-10-29T16:36:43.824Z,10.03
2023-10-29T16:39:12.566Z,11.63
2023-10-29T16:41:40.748Z,13.30
2023-10-29T16:44:10.151Z,14.27
2023-10-29T16:46:40.552Z,12.53
2023-10-29T16:49:08.688Z,17.43
2023-10-29T16:51:36.670Z,14.57
2023-10-29T16:54:05.522Z,19.73
2023-10-29T16:56:33.775Z,16.90
2023-10-29T16:59:01.864Z,13.27
2023-10-29T17:01:31.347Z,11.07
2023-10-29T17:03:59.489Z,15.77
2023-10-29T17:06:27.733Z,11.87
2023-10-29T17:08:59.109Z,12.70
2023-10-29T17:11:27.197Z,13.63
2023-10-29T17:13:55.762Z,12.27
2023-10-29T17:16:23.959Z,11.27
2023-10-29T17:18:53.564Z,10.20
2023-10-29T17:21:22.201Z,9.43
2023-10-29T17:23:51.940Z,11.73
2023-10-29T17:26:21.232Z,20.20
2023-10-29T17:28:50.314Z,13.80
2023-10-29T17:31:19.666Z,11.67
2023-10-29T17:33:48.197Z,9.63
2023-10-29T17:36:18.511Z,10.10
2023-10-29T17:38:46.797Z,21.40
2023-10-29T17:41:16.114Z,16.07
2023-10-29T17:43:44.617Z,14.17
2023-10-29T17:46:17.244Z,15.17
2023-10-29T17:48:46.128Z,12.80
2023-10-29T17:51:14.381Z,19.93
2023-10-29T17:53:47.129Z,12.90
2023-10-29T17:56:17.614Z,14.00
2023-10-29T17:58:46.979Z,18.33
2023-10-29T18:01:15.569Z,15.13
2023-10-29T18:03:45.316Z,31.87
2023-10-29T18:06:16.569Z,18.53
2023-10-29T18:08:46.641Z,29.93
2023-10-29T18:11:15.415Z,20.20
2023-10-29T18:13:44.451Z,38.20
2023-10-29T18:16:12.882Z,49.23
2023-10-29T18:18:41.205Z,35.40
2023-10-29T18:21:09.295Z,22.63
2023-10-29T18:23:37.398Z,22.13
2023-10-29T18:26:07.014Z,35.37
2023-10-29T18:28:35.234Z,40.43
2023-10-29T18:31:06.121Z,31.53
2023-10-29T18:33:34.386Z,30.23
2023-10-29T18:36:07.838Z,22.73
2023-10-29T18:38:36.327Z,12.93
2023-10-29T18:41:11.130Z,11.07
2023-10-29T18:43:39.409Z,9.67
2023-10-29T18:46:11.296Z,11.63
2023-10-29T18:48:39.850Z,10.43
2023-10-29T18:51:08.045Z,11.13
2023-10-29T18:53:36.079Z,13.90
2023-10-29T18:56:05.803Z,14.93
2023-10-29T18:58:35.307Z,12.77
2023-10-29T19:01:12.513Z,12.07
2023-10-29T19:03:41.730Z,11.43
2023-10-29T19:06:11.124Z,13.53
2023-10-29T19:08:39.567Z,15.93
2023-10-29T19:11:07.727Z,16.43
2023-10-29T19:13:37.359Z,12.47
2023-10-29T19:16:07.425Z,11.37
2023-10-29T19:18:36.225Z,11.27
2023-10-29T19:21:04.435Z,11.60
2023-10-29T19:23:34.974Z,11.67
2023-10-29T19:26:03.575Z,10.50
2023-10-29T19:28:32.339Z,10.77
2023-10-29T19:31:21.580Z,10.77
2023-10-29T19:33:50.002Z,9.80
2023-10-29T19:36:18.072Z,10.97
2023-10-29T19:38:46.268Z,9.93
2023-10-29T19:41:14.425Z,10.97
2023-10-29T19:43:42.428Z,11.00
2023-10-29T19:46:12.155Z,8.83
2023-10-29T19:48:40.260Z,6.53
2023-10-29T19:51:09.284Z,7.33
2023-10-29T19:53:38.129Z,6.73
2023-10-29T19:56:08.147Z,6.43
2023-10-29T19:58:36.803Z,6.33
2023-10-29T20:01:06.292Z,7.17
2023-10-29T20:03:36.238Z,6.70
2023-10-29T20:06:09.375Z,6.37
2023-10-29T20:08:37.691Z,8.53
2023-10-29T20:11:09.523Z,7.30
2023-10-29T20:13:38.106Z,8.30
2023-10-29T20:16:06.945Z,6.47
2023-10-29T20:18:37.238Z,10.50
2023-10-29T20:21:06.609Z,6.10
2023-10-29T20:23:34.821Z,6.33
2023-10-29T20:26:04.517Z,7.73
2023-10-29T20:28:33.236Z,7.07
2023-10-29T20:31:01.307Z,7.70
2023-10-29T20:33:29.422Z,6.50
2023-10-29T20:35:58.984Z,5.80
2023-10-29T20:38:27.195Z,6.50
2023-10-29T20:40:55.367Z,6.07
2023-10-29T20:43:23.528Z,6.07
2023-10-29T20:45:55.498Z,6.40
2023-10-29T20:48:23.749Z,6.47
2023-10-29T20:50:52.821Z,6.27
2023-10-29T20:53:22.930Z,6.67
2023-10-29T20:55:50.944Z,6.00
2023-10-29T20:58:19.132Z,6.00
2023-10-29T21:00:49.990Z,6.27
2023-10-29T21:03:18.172Z,5.80
2023-10-29T21:05:47.003Z,6.40
2023-10-29T21:08:15.363Z,5.97
2023-10-29T21:10:44.712Z,5.63
2023-10-29T21:13:12.951Z,6.03
2023-10-29T21:15:41.615Z,4.80
2023-10-29T21:18:10.473Z,6.07
2023-10-29T21:20:38.832Z,6.60
2023-10-29T21:23:07.809Z,5.90
2023-10-29T21:25:39.472Z,6.43
2023-10-29T21:28:09.024Z,5.73
2023-10-29T21:30:38.901Z,5.50
2023-10-29T21:33:07.110Z,5.83
2023-10-29T21:35:35.838Z,5.47
2023-10-29T21:38:03.955Z,5.27
2023-10-29T21:40:34.414Z,5.80
2023-10-29T21:43:02.513Z,6.23
2023-10-29T21:45:32.375Z,6.53
2023-10-29T21:48:01.187Z,5.83
2023-10-29T21:50:29.176Z,6.13
2023-10-29T21:52:57.119Z,6.00
2023-10-29T21:55:25.164Z,6.57
2023-10-29T21:57:53.324Z,5.50
2023-10-29T22:00:21.436Z,4.60
2023-10-29T22:02:51.011Z,4.57
2023-10-29T22:05:19.118Z,4.57
2023-10-29T22:07:47.136Z,4.37
2023-10-29T22:10:15.655Z,4.33
2023-10-29T22:12:44.901Z,4.53
2023-10-29T22:15:13.027Z,4.70
2023-10-29T22:17:41.115Z,5.17
2023-10-29T22:20:11.728Z,4.27
2023-10-29T22:22:39.727Z,4.03
2023-10-29T22:25:08.549Z,4.07
2023-10-29T22:27:36.589Z,3.57
2023-10-29T22:30:07.137Z,3.33
2023-10-29T22:32:36.398Z,3.57
2023-10-29T22:35:04.661Z,3.83
2023-10-29T22:37:34.274Z,3.63
2023-10-29T22:40:02.427Z,3.43
2023-10-29T22:42:30.489Z,3.37
2023-10-29T22:44:58.688Z,3.43
2023-10-29T22:47:27.234Z,3.63
2023-10-29T22:49:55.336Z,4.17
2023-10-29T22:52:23.511Z,3.40
2023-10-29T22:54:52.958Z,3.63
2023-10-29T22:57:20.999Z,3.40
2023-10-29T22:59:52.457Z,3.53
2023-10-29T23:02:20.544Z,4.17
2023-10-29T23:04:48.700Z,4.50
2023-10-29T23:07:16.711Z,4.13
2023-10-29T23:09:44.888Z,3.93
2023-10-29T23:12:14.746Z,3.73
2023-10-29T23:14:43.116Z,4.43
2023-10-29T23:17:11.108Z,3.83
2023-10-29T23:19:39.347Z,4.03
2023-10-29T23:22:07.567Z,4.17
2023-10-29T23:24:35.826Z,3.80
2023-10-29T23:27:05.958Z,4.07
2023-10-29T23:29:35.496Z,3.60
2023-10-29T23:32:03.732Z,4.20
2023-10-29T23:34:32.253Z,3.97
2023-10-29T23:37:00.364Z,3.10
2023-10-29T23:39:29.843Z,3.50
2023-10-29T23:41:58.064Z,2.87
2023-10-29T23:44:26.265Z,3.33
2023-10-29T23:46:55.656Z,3.87
2023-10-29T23:49:24.212Z,3.17
2023-10-29T23:51:52.352Z,2.90
2023-10-29T23:54:21.342Z,2.70
2023-10-29T23:56:49.456Z,3.07
2023-10-29T23:59:17.545Z,2.80
